createdAt,value
2023-03-30T00:00:47.545Z,99.99
2023-03-30T00:01:47.548Z,99.99
2023-03-30T00:02:47.689Z,99.99
2023-03-30T00:03:47.743Z,99.99
2023-03-30T00:04:47.727Z,99.99
2023-03-30T00:05:47.570Z,99.99
2023-03-30T00:06:47.565Z,99.99
2023-03-30T00:07:47.614Z,99.99
2023-03-30T00:08:47.581Z,99.99
2023-03-30T00:09:47.583Z,99.99
2023-03-30T00:10:47.620Z,99.99
2023-03-30T00:11:47.607Z,99.99
2023-03-30T00:12:47.603Z,99.99
2023-03-30T00:13:47.608Z,99.99
2023-03-30T00:14:47.616Z,99.99
2023-03-30T00:15:47.621Z,99.99
2023-03-30T00:16:47.670Z,99.99
2023-03-30T00:17:47.663Z,99.99
2023-03-30T00:18:47.632Z,99.99
2023-03-30T00:19:47.653Z,99.99
2023-03-30T00:20:47.650Z,99.99
2023-03-30T00:21:47.641Z,99.99
2023-03-30T00:22:47.659Z,99.99
2023-03-30T00:23:47.660Z,99.99
2023-03-30T00:24:47.667Z,99.99
2023-03-30T00:25:47.662Z,99.99
2023-03-30T00:26:47.701Z,99.99
2023-03-30T00:27:47.676Z,99.99
2023-03-30T00:28:47.686Z,99.99
2023-03-30T00:29:47.694Z,99.99
2023-03-30T00:30:47.703Z,99.99
2023-03-30T00:31:47.726Z,99.99
2023-03-30T00:32:47.755Z,99.99
2023-03-30T00:33:48.037Z,99.99
2023-03-30T00:34:47.707Z,99.99
2023-03-30T00:35:47.730Z,99.99
2023-03-30T00:36:47.726Z,99.99
2023-03-30T00:37:47.725Z,99.99
2023-03-30T00:38:47.740Z,99.99
2023-03-30T00:39:47.737Z,99.99
2023-03-30T00:40:47.739Z,99.99
2023-03-30T00:41:47.752Z,99.99
2023-03-30T00:42:47.801Z,99.99
2023-03-30T00:43:47.756Z,99.99
2023-03-30T00:44:47.770Z,99.99
2023-03-30T00:45:47.868Z,99.99
2023-03-30T00:46:47.772Z,99.99
2023-03-30T00:47:47.827Z,99.99
2023-03-30T00:48:47.785Z,99.99
2023-03-30T00:49:47.784Z,99.99
2023-03-30T00:50:47.799Z,99.99
2023-03-30T00:51:47.796Z,99.99
2023-03-30T00:52:47.800Z,99.99
2023-03-30T00:53:47.813Z,99.99
2023-03-30T00:54:47.817Z,99.99
2023-03-30T00:55:47.821Z,99.99
2023-03-30T00:56:47.847Z,99.99
2023-03-30T00:57:47.824Z,99.99
2023-03-30T00:58:47.864Z,99.99
2023-03-30T00:59:47.833Z,99.99
2023-03-30T01:00:47.851Z,99.99
2023-03-30T01:01:47.861Z,99.99
2023-03-30T01:02:47.877Z,99.99
2023-03-30T01:03:48.222Z,99.99
2023-03-30T01:04:47.868Z,99.99
2023-03-30T01:05:47.876Z,99.99
2023-03-30T01:06:47.878Z,99.99
2023-03-30T01:07:47.876Z,99.99
2023-03-30T01:08:47.890Z,99.99
2023-03-30T01:09:47.893Z,99.99
2023-03-30T01:10:47.902Z,99.99
2023-03-30T01:11:47.899Z,99.99
2023-03-30T10:04:43.150Z,76.44
2023-03-30T10:05:43.097Z,75.51
2023-03-30T10:06:43.111Z,73.82
2023-03-30T10:07:43.136Z,72.60
2023-03-30T10:08:43.133Z,71.67
2023-03-30T10:09:43.164Z,72.19
2023-03-30T10:10:43.156Z,72.22
2023-03-30T10:11:43.172Z,70.52
2023-03-30T10:12:43.188Z,68.78
2023-03-30T10:13:43.236Z,68.10
2023-03-30T10:33:29.104Z,64.34
2023-03-30T10:34:29.082Z,62.66
2023-03-30T11:12:21.392Z,64.59
2023-03-30T11:13:21.377Z,64.50
2023-03-30T11:14:21.401Z,63.95
2023-03-30T11:15:21.400Z,63.98
2023-03-30T11:16:24.057Z,62.05
2023-03-30T11:17:21.438Z,62.44
2023-03-30T11:18:21.453Z,61.95
2023-03-30T11:19:21.481Z,61.83
2023-03-30T11:20:21.487Z,62.02
2023-03-30T11:21:21.492Z,61.99
2023-03-30T11:22:21.516Z,62.44
2023-03-30T11:23:21.534Z,62.73
2023-03-30T11:24:21.540Z,63.12
2023-03-30T11:25:21.561Z,63.47
2023-03-30T11:26:21.567Z,63.47
2023-03-30T11:27:21.593Z,63.63
2023-03-30T11:28:21.621Z,64.18
2023-03-30T11:29:21.618Z,64.76
2023-03-30T11:30:21.629Z,64.76
2023-03-30T11:31:21.685Z,64.92
2023-03-30T11:32:21.661Z,65.78
2023-03-30T11:33:21.668Z,65.75
2023-03-30T11:34:21.679Z,66.14
2023-03-30T11:35:21.698Z,65.81
2023-03-30T11:36:21.756Z,66.20
2023-03-30T11:37:21.716Z,66.39
2023-03-30T11:38:21.722Z,66.97
2023-03-30T11:39:31.555Z,67.16
2023-03-30T11:40:22.706Z,67.45
2023-03-30T16:24:52.202Z,74.95
2023-03-30T16:25:52.180Z,75.23
2023-03-30T16:26:52.182Z,75.62
2023-03-30T16:27:52.201Z,75.77
2023-03-30T16:28:52.214Z,75.77
2023-03-30T16:29:52.208Z,75.77
2023-03-30T16:30:52.216Z,75.96
2023-03-30T16:31:52.350Z,76.06
2023-03-30T16:32:52.321Z,76.73
2023-03-30T16:33:52.241Z,76.40
2023-03-30T16:34:52.256Z,76.40
2023-03-30T16:35:52.290Z,76.89
2023-03-30T16:36:52.275Z,76.60
2023-03-30T16:37:52.272Z,76.98
2023-03-30T16:38:52.278Z,77.46
2023-03-30T16:39:52.286Z,77.46
2023-03-30T16:40:52.314Z,77.65
2023-03-30T16:41:52.306Z,77.94
2023-03-30T16:42:52.309Z,77.61
2023-03-30T16:43:52.321Z,77.90
2023-03-30T16:44:52.326Z,78.19
2023-03-30T16:45:52.341Z,78.38
2023-03-30T16:46:52.467Z,78.66
2023-03-30T16:47:52.377Z,78.57
2023-03-30T16:48:52.358Z,78.86
2023-03-30T16:49:52.363Z,78.72
2023-03-30T16:50:52.375Z,79.20
2023-03-30T16:51:53.694Z,79.77
2023-03-30T16:52:52.376Z,79.87
2023-03-30T16:53:52.395Z,80.06
2023-03-30T16:54:52.397Z,80.25
2023-03-30T16:55:52.396Z,79.68
2023-03-30T16:56:52.453Z,80.16
2023-03-30T16:57:52.415Z,80.16
2023-03-30T16:58:52.430Z,80.63
2023-03-30T16:59:52.425Z,80.82
2023-03-30T17:00:52.453Z,80.35
2023-03-30T17:01:52.476Z,80.82
2023-03-30T17:02:52.514Z,80.82
2023-03-30T17:03:52.465Z,81.21
2023-03-30T17:04:52.506Z,81.68
2023-03-30T17:05:52.660Z,81.88
2023-03-30T17:06:52.482Z,81.97
2023-03-30T17:07:52.528Z,81.68
2023-03-30T17:08:52.519Z,81.78
2023-03-30T17:09:52.523Z,82.07
2023-03-30T17:10:52.545Z,82.26
2023-03-30T17:11:52.592Z,82.26
2023-03-30T17:12:52.556Z,82.54
2023-03-30T17:13:52.542Z,82.45
2023-03-30T17:14:52.555Z,82.26
2023-03-30T17:15:52.567Z,82.17
2023-03-30T17:16:52.702Z,81.59
2023-03-30T17:17:52.615Z,81.21
2023-03-30T17:18:52.587Z,80.06
2023-03-30T17:19:52.576Z,80.30
2023-03-30T17:20:52.576Z,79.77
2023-03-30T17:21:52.585Z,79.83
2023-03-30T17:22:52.609Z,79.83
2023-03-30T17:23:52.602Z,80.11
2023-03-30T17:24:52.611Z,79.83
2023-03-30T17:25:52.618Z,79.64
2023-03-30T17:26:52.622Z,79.83
2023-03-30T17:27:52.625Z,80.02
2023-03-30T17:28:52.663Z,79.73
2023-03-30T17:29:52.647Z,80.02
2023-03-30T17:30:52.684Z,80.02
2023-03-30T17:31:52.651Z,80.21
2023-03-30T17:32:52.674Z,80.11
2023-03-30T17:33:52.676Z,80.30
2023-03-30T17:34:52.690Z,80.55
2023-03-30T17:35:52.738Z,80.27
2023-03-30T17:36:52.702Z,81.22
2023-03-30T17:37:52.718Z,80.93
2023-03-30T17:38:52.712Z,80.84
2023-03-30T17:39:52.708Z,81.22
2023-03-30T17:40:52.760Z,81.32
2023-03-30T17:41:52.728Z,81.51
2023-03-30T17:42:52.784Z,81.79
2023-03-30T17:43:52.767Z,81.60
2023-03-30T17:44:52.760Z,81.79
2023-03-30T17:45:52.859Z,81.70
2023-03-30T17:46:52.759Z,81.89
2023-03-30T17:47:52.889Z,81.60
2023-03-30T17:48:52.777Z,81.70
2023-03-30T17:49:52.777Z,81.70
2023-03-30T17:50:52.784Z,81.32
2023-03-30T17:51:52.804Z,82.08
2023-03-30T17:52:52.791Z,82.08
2023-03-30T17:53:52.805Z,82.37
2023-03-30T17:54:52.813Z,82.28
2023-03-30T17:55:52.819Z,81.99
2023-03-30T17:56:52.871Z,81.99
2023-03-30T17:57:52.833Z,82.37
2023-03-30T18:08:05.644Z,83.09
2023-03-30T18:09:05.614Z,83.38
2023-03-30T18:10:05.634Z,83.28
2023-03-30T18:11:05.794Z,83.38
2023-03-30T18:16:39.950Z,84.05
2023-03-30T18:20:15.067Z,84.14
2023-03-30T18:21:15.079Z,84.52
2023-03-30T18:22:15.080Z,84.52
2023-03-30T18:23:15.116Z,84.20
2023-03-30T18:24:15.103Z,84.72
2023-03-30T18:25:29.476Z,84.91
2023-03-30T18:26:15.323Z,85.38
2023-03-30T18:27:15.114Z,85.38
2023-03-30T18:28:15.124Z,85.77
2023-03-30T18:29:15.123Z,85.53
2023-03-30T18:30:15.135Z,85.25
2023-03-30T18:31:15.168Z,85.34
2023-03-30T18:32:15.147Z,85.53
2023-03-30T18:33:15.203Z,85.53
2023-03-30T18:34:15.159Z,85.63
2023-03-30T18:35:15.157Z,85.34
2023-03-30T18:36:15.194Z,86.01
2023-03-30T18:37:15.178Z,86.01
2023-03-30T18:38:15.180Z,86.20
2023-03-30T18:39:15.210Z,86.20
2023-03-30T18:40:15.189Z,86.10
2023-03-30T18:41:15.189Z,86.68
2023-03-30T18:42:15.201Z,86.10
2023-03-30T18:43:15.201Z,86.68
2023-03-30T18:44:15.206Z,86.49
2023-03-30T18:45:15.286Z,86.30
2023-03-30T18:46:15.241Z,86.39
2023-03-30T18:47:15.230Z,86.49
2023-03-30T18:49:12.810Z,86.87
2023-03-30T18:50:12.805Z,86.68
2023-03-30T18:51:12.822Z,86.87
2023-03-30T18:52:12.825Z,86.68
2023-03-30T18:53:12.830Z,86.77
2023-03-30T18:54:12.843Z,86.96
2023-03-30T18:55:12.860Z,86.68
2023-03-30T18:56:12.850Z,87.06
2023-03-30T18:57:12.883Z,87.63
2023-03-30T18:58:12.856Z,87.63
2023-03-30T18:59:12.866Z,87.73
2023-03-30T19:00:12.873Z,87.44
2023-03-30T19:01:12.993Z,87.35
2023-03-30T19:02:12.926Z,87.54
2023-03-30T19:03:13.037Z,87.54
2023-03-30T19:04:12.888Z,87.35
2023-03-30T19:05:12.904Z,87.54
2023-03-30T19:06:12.908Z,87.44
2023-03-30T19:07:12.911Z,87.54
2023-03-30T19:08:12.998Z,87.63
2023-03-30T19:09:12.925Z,87.82
2023-03-30T19:10:12.938Z,87.82
2023-03-30T19:11:12.958Z,87.82
2023-03-30T19:12:12.947Z,87.92
2023-03-30T19:13:12.944Z,87.92
2023-03-30T19:14:12.950Z,87.82
2023-03-30T19:15:12.955Z,87.92
2023-03-30T19:16:13.005Z,87.82
2023-03-30T19:17:12.969Z,87.35
